Time;durP1;ratioP1;P1;durP2;ratioP2;P2;SDS_P1;SDS_P2;PMS_P1;PMS_P2;Temp;Humidity;BMP_temperature;BMP_pressure;BME280_temperature;BME280_humidity;BME280_pressure;Samples;Min_cycle;Max_cycle;Signal;HPM_P1;HPM_P2
2023/02/21 02:15:19;;;;;;;5.60;4.20;;;;;;;7.14;95.38;98894.06;131277;1251;107489;-75
2023/02/21 02:18:52;;;;;;;4.10;3.20;;;;;;;7.18;94.91;98898.58;131101;1255;107413;-76
2023/02/21 02:22:18;;;;;;;3.20;2.30;;;;;;;7.17;96.86;98897.12;131259;1250;107250;-75
2023/02/21 02:25:38;;;;;;;2.40;1.80;;;;;;;7.12;97.24;98897.65;131082;1254;107433;-76
2023/02/21 02:28:57;;;;;;;2.10;1.60;;;;;;;7.11;97.16;98900.73;131204;1251;107559;-77
2023/02/21 02:32:28;;;;;;;2.40;1.60;;;;;;;7.12;97.08;98898.28;131240;1251;108586;-75
2023/02/21 02:35:38;;;;;;;1.70;1.30;;;;;;;7.08;96.68;98898.31;131343;1250;107542;-76
2023/02/21 02:38:53;;;;;;;1.80;1.20;;;;;;;7.06;96.79;98896.75;131300;1251;107559;-77
2023/02/21 02:42:09;;;;;;;2.10;1.10;;;;;;;7.00;96.89;98893.48;131231;1250;106703;-76
2023/02/21 02:45:23;;;;;;;0.90;0.70;;;;;;;6.96;96.31;98895.23;131127;1251;108702;-77
2023/02/21 02:48:34;;;;;;;1.30;0.70;;;;;;;6.93;96.48;98897.81;131198;1251;107475;-76
2023/02/21 02:51:40;;;;;;;0.90;0.60;;;;;;;6.86;96.60;98906.13;131278;1248;108414;-76
2023/02/21 02:54:57;;;;;;;0.60;0.50;;;;;;;6.84;96.43;98897.93;131281;1251;108686;-76
2023/02/21 02:58:04;;;;;;;1.80;0.40;;;;;;;6.80;95.93;98903.27;131113;1255;108447;-76
2023/02/21 03:01:32;;;;;;;2.00;0.70;;;;;;;6.79;95.40;98904.65;131325;1261;107427;-75
2023/02/21 03:05:07;;;;;;;0.80;0.60;;;;;;;6.78;94.72;98911.45;131241;1255;108635;-75
2023/02/21 03:08:28;;;;;;;1.80;0.70;;;;;;;6.78;94.76;98910.91;131222;1252;107434;-76
2023/02/21 03:11:37;;;;;;;0.80;0.50;;;;;;;6.77;94.41;98912.30;131396;1252;107492;-77
2023/02/21 03:14:50;;;;;;;0.90;0.50;;;;;;;6.75;94.14;98910.55;131297;1252;107528;-76
2023/02/21 03:18:00;;;;;;;1.00;0.40;;;;;;;6.71;94.20;98918.52;131064;1248;107346;-74
2023/02/21 03:21:11;;;;;;;0.90;0.60;;;;;;;6.72;93.67;98915.46;131392;1250;107667;-74
2023/02/21 03:24:19;;;;;;;0.40;0.30;;;;;;;6.72;93.41;98907.70;131441;1251;107443;-75
2023/02/21 03:27:28;;;;;;;0.60;0.40;;;;;;;6.75;92.75;98912.95;131438;1252;107472;-75
2023/02/21 03:30:41;;;;;;;1.30;0.70;;;;;;;6.77;92.54;98916.30;131345;1252;107518;-75
2023/02/21 03:33:47;;;;;;;1.10;0.70;;;;;;;6.75;92.54;98910.55;131124;1254;107492;-77
2023/02/21 03:36:52;;;;;;;1.30;0.60;;;;;;;6.73;92.29;98918.05;131095;1253;107510;-76
2023/02/21 03:39:58;;;;;;;1.00;0.70;;;;;;;6.73;92.04;98917.48;131084;1255;105681;-77
2023/02/21 03:43:06;;;;;;;1.40;0.60;;;;;;;6.73;92.21;98917.10;131292;1252;107435;-76
2023/02/21 03:46:16;;;;;;;4.30;2.70;;;;;;;6.74;92.11;98906.95;131243;1250;107515;-76
2023/02/21 03:49:21;;;;;;;2.90;1.30;;;;;;;6.76;91.88;98914.19;131125;1254;107512;-77
2023/02/21 03:52:28;;;;;;;0.90;0.40;;;;;;;6.75;91.20;98915.11;131303;1252;107555;-79
2023/02/21 03:55:34;;;;;;;1.20;0.50;;;;;;;6.79;90.49;98924.11;131259;1253;107359;-78
2023/02/21 03:58:42;;;;;;;5.50;2.00;;;;;;;6.82;90.12;98929.08;131283;1251;107425;-78
2023/02/21 04:01:47;;;;;;;12.50;4.40;;;;;;;6.81;89.00;98915.95;131176;1255;107163;-75
2023/02/21 04:04:54;;;;;;;7.10;3.50;;;;;;;6.80;87.43;98915.63;131244;1250;108653;-77
2023/02/21 04:08:03;;;;;;;3.60;1.60;;;;;;;6.84;86.97;98913.41;131241;1261;107508;-76
2023/02/21 04:11:09;;;;;;;2.10;0.90;;;;;;;6.85;84.72;98926.10;131113;1251;107404;-77
2023/02/21 04:14:15;;;;;;;2.60;1.20;;;;;;;6.82;84.85;98927.76;131339;1251;107605;-76
2023/02/21 04:17:21;;;;;;;11.60;4.50;;;;;;;6.80;84.43;98925.89;131194;1263;107437;-76
2023/02/21 04:20:27;;;;;;;6.80;3.10;;;;;;;6.79;84.93;98920.85;131322;1252;107455;-74
2023/02/21 04:23:36;;;;;;;2.90;1.20;;;;;;;6.81;84.20;98930.27;131292;1252;107437;-75
2023/02/21 04:26:43;;;;;;;1.30;0.60;;;;;;;6.83;83.95;98919.55;131354;1251;107546;-77
2023/02/21 04:29:54;;;;;;;5.30;1.40;;;;;;;6.83;83.30;98918.02;131412;1252;107637;-77
2023/02/21 04:33:02;;;;;;;2.80;0.90;;;;;;;6.80;82.65;98931.73;131431;1251;108472;-77
2023/02/21 04:36:09;;;;;;;2.70;1.20;;;;;;;6.77;82.90;98919.20;131515;1251;107473;-74
2023/02/21 04:39:19;;;;;;;31.20;12.60;;;;;;;6.73;82.15;98912.49;131456;1251;107445;-76
2023/02/21 04:42:26;;;;;;;2.80;1.20;;;;;;;6.70;83.08;98907.00;131234;1251;107468;-76
2023/02/21 04:45:32;;;;;;;2.60;1.00;;;;;;;6.63;82.23;98900.67;131226;1252;107562;-76
2023/02/21 04:48:38;;;;;;;7.80;3.90;;;;;;;6.58;82.13;98910.02;131096;1255;107554;-76
2023/02/21 04:51:44;;;;;;;4.10;2.60;;;;;;;6.57;81.65;98913.96;131216;1252;107553;-79
2023/02/21 04:54:50;;;;;;;5.40;2.40;;;;;;;6.55;81.29;98903.02;131223;1252;107600;-77
2023/02/21 04:57:55;;;;;;;4.10;1.30;;;;;;;6.54;81.01;98915.58;131230;1252;106455;-76
2023/02/21 05:01:01;;;;;;;3.10;1.40;;;;;;;6.50;80.96;98916.66;131209;1252;107524;-76
2023/02/21 05:04:07;;;;;;;2.50;1.00;;;;;;;6.47;81.79;98923.30;131188;1252;107555;-76
2023/02/21 05:07:12;;;;;;;3.00;0.70;;;;;;;6.45;81.81;98928.62;131228;1252;107433;-76
2023/02/21 05:10:19;;;;;;;3.40;0.80;;;;;;;6.42;81.33;98939.88;131304;1250;107558;-77
2023/02/21 05:13:24;;;;;;;2.50;0.60;;;;;;;6.39;81.45;98935.48;131315;1252;107533;-75
2023/02/21 05:16:30;;;;;;;3.10;1.10;;;;;;;6.33;81.12;98935.36;131297;1248;107445;-76
2023/02/21 05:19:36;;;;;;;2.80;1.30;;;;;;;6.24;81.00;98943.36;131355;1252;107564;-76
2023/02/21 05:22:43;;;;;;;3.90;1.10;;;;;;;6.21;81.63;98946.86;131286;1252;108578;-76
2023/02/21 05:25:48;;;;;;;3.40;1.30;;;;;;;6.22;81.46;98942.33;131268;1252;109310;-76
2023/02/21 05:28:55;;;;;;;3.40;1.80;;;;;;;6.24;80.98;98953.46;131229;1252;107568;-76
2023/02/21 05:32:01;;;;;;;4.10;2.00;;;;;;;6.19;80.96;98951.62;131235;1250;107383;-76
2023/02/21 05:35:08;;;;;;;3.40;1.70;;;;;;;6.13;81.13;98957.20;131268;1253;108685;-76
2023/02/21 05:38:13;;;;;;;4.00;1.80;;;;;;;6.07;81.51;98969.84;131240;1252;107501;-75
2023/02/21 05:41:19;;;;;;;46.70;25.10;;;;;;;6.03;81.93;98973.20;131268;1253;106578;-76
2023/02/21 05:44:24;;;;;;;12.80;7.30;;;;;;;6.00;81.43;98974.16;131451;1252;106385;-76
2023/02/21 05:47:30;;;;;;;22.50;13.70;;;;;;;6.00;81.61;98982.15;131460;1247;107256;-77
2023/02/21 05:50:35;;;;;;;7.50;4.30;;;;;;;6.01;82.11;98979.94;131464;1252;107526;-76
2023/02/21 05:53:41;;;;;;;17.00;9.70;;;;;;;6.01;81.95;98988.48;131491;1252;107598;-76
2023/02/21 05:56:48;;;;;;;7.70;3.40;;;;;;;5.98;82.02;98996.16;131448;1252;107542;-77
2023/02/21 05:59:54;;;;;;;5.50;3.00;;;;;;;6.00;80.97;98984.16;131275;1253;107681;-77
2023/02/21 06:03:00;;;;;;;5.90;2.30;;;;;;;6.02;80.47;98984.61;131205;1252;108770;-76
2023/02/21 06:06:06;;;;;;;4.30;1.80;;;;;;;6.06;80.85;98983.70;131227;1252;107788;-76
2023/02/21 06:09:12;;;;;;;8.30;4.00;;;;;;;6.07;80.35;98990.14;131288;1250;106403;-76
2023/02/21 06:12:18;;;;;;;4.30;1.80;;;;;;;6.05;79.49;98993.14;131261;1250;107229;-76
2023/02/21 06:15:23;;;;;;;5.20;1.50;;;;;;;6.07;79.52;99007.89;131203;1252;107526;-76
2023/02/21 06:18:29;;;;;;;4.40;1.40;;;;;;;6.11;79.38;99017.59;131255;1253;107491;-76
2023/02/21 06:21:35;;;;;;;13.60;6.30;;;;;;;6.14;78.58;99012.03;131260;1254;108685;-76
2023/02/21 06:24:41;;;;;;;8.30;2.90;;;;;;;6.17;79.04;99021.62;131275;1252;107442;-76
2023/02/21 06:27:46;;;;;;;4.60;1.10;;;;;;;6.19;79.33;99022.11;131220;1253;107393;-76
2023/02/21 06:30:52;;;;;;;4.90;1.50;;;;;;;6.20;79.85;99020.62;131233;1252;106521;-77
2023/02/21 06:33:58;;;;;;;16.20;7.50;;;;;;;6.20;79.22;99023.90;131242;1250;108645;-77
2023/02/21 06:37:05;;;;;;;10.50;4.30;;;;;;;6.21;78.73;99037.05;131342;1250;107379;-76
2023/02/21 06:40:12;;;;;;;12.60;6.90;;;;;;;6.24;79.29;99032.73;131400;1254;107524;-78
2023/02/21 06:43:18;;;;;;;9.30;2.50;;;;;;;6.23;79.25;99029.11;131395;1252;107424;-76
2023/02/21 06:46:26;;;;;;;6.60;2.10;;;;;;;6.12;78.15;99040.27;131222;1252;107498;-77
2023/02/21 06:49:31;;;;;;;11.30;4.60;;;;;;;6.05;78.27;99044.54;131238;1252;107524;-77
2023/02/21 06:52:37;;;;;;;7.50;3.80;;;;;;;6.02;78.35;99047.52;131272;1250;108653;-77
2023/02/21 06:55:42;;;;;;;11.80;6.60;;;;;;;6.03;78.05;99047.01;131485;1252;108676;-76
2023/02/21 06:58:48;;;;;;;10.00;5.50;;;;;;;6.02;77.53;99046.08;131450;1251;107529;-76
2023/02/21 07:01:54;;;;;;;4.60;1.10;;;;;;;5.96;77.60;99050.19;131396;1252;107504;-76
2023/02/21 07:04:59;;;;;;;8.20;2.00;;;;;;;5.94;77.84;99049.86;131338;1253;107415;-75
2023/02/21 07:08:05;;;;;;;11.30;4.90;;;;;;;5.98;78.22;99055.64;131289;1252;108690;-76
2023/02/21 07:11:11;;;;;;;23.50;13.90;;;;;;;6.06;78.72;99048.48;131260;1252;106069;-76
2023/02/21 07:14:17;;;;;;;53.10;26.30;;;;;;;6.19;78.78;99048.98;131214;1252;106619;-76
2023/02/21 07:17:22;;;;;;;26.40;11.20;;;;;;;6.30;77.96;99053.34;131290;1252;107607;-76
2023/02/21 07:20:28;;;;;;;8.90;2.80;;;;;;;6.36;77.58;99060.89;131321;1250;107495;-76
2023/02/21 07:23:33;;;;;;;8.90;2.30;;;;;;;6.34;76.65;99054.65;131338;1250;107437;-75
2023/02/21 07:26:39;;;;;;;12.10;2.90;;;;;;;6.33;76.53;99063.31;131044;1253;107391;-76
2023/02/21 07:29:46;;;;;;;8.80;4.30;;;;;;;6.32;75.06;99077.48;131086;1252;109313;-77
2023/02/21 07:32:51;;;;;;;6.00;1.60;;;;;;;6.35;74.27;99088.17;131089;1250;107468;-75
2023/02/21 07:35:57;;;;;;;5.50;1.40;;;;;;;6.39;74.67;99085.22;130988;1250;107452;-78
2023/02/21 07:39:02;;;;;;;6.00;1.60;;;;;;;6.45;74.31;99101.77;131042;1256;107496;-76
2023/02/21 07:42:08;;;;;;;5.50;1.60;;;;;;;6.57;74.03;99104.58;131008;1265;108105;-76
2023/02/21 07:45:15;;;;;;;5.90;1.80;;;;;;;6.74;73.53;99116.15;131016;1250;107388;-75
2023/02/21 07:48:20;;;;;;;10.80;4.50;;;;;;;6.83;73.28;99122.67;131009;1255;107478;-76
2023/02/21 07:51:29;;;;;;;8.80;3.20;;;;;;;6.87;71.70;99137.67;131142;1252;107604;-76
2023/02/21 07:54:35;;;;;;;6.70;1.50;;;;;;;6.88;72.31;99144.21;131115;1250;106486;-76
2023/02/21 07:57:40;;;;;;;5.20;1.60;;;;;;;6.89;72.74;99142.69;131044;1255;107551;-76
2023/02/21 08:00:46;;;;;;;29.10;21.30;;;;;;;6.94;72.82;99146.69;131005;1250;108680;-76
2023/02/21 08:03:52;;;;;;;8.50;2.30;;;;;;;6.97;72.69;99152.51;131201;1250;108644;-75
2023/02/21 08:07:02;;;;;;;27.00;14.70;;;;;;;6.95;72.57;99153.07;131304;1255;107250;-75
2023/02/21 08:10:08;;;;;;;6.20;2.00;;;;;;;6.97;71.71;99157.35;131327;1250;107540;-75
2023/02/21 08:13:14;;;;;;;14.50;8.30;;;;;;;6.90;72.82;99150.27;131253;1261;107224;-75
2023/02/21 08:16:20;;;;;;;32.90;17.70;;;;;;;6.85;72.95;99156.52;131308;1253;108068;-75
2023/02/21 08:19:25;;;;;;;7.50;2.50;;;;;;;6.90;72.89;99160.73;131307;1262;107540;-75
2023/02/21 08:22:31;;;;;;;6.70;1.90;;;;;;;6.95;72.72;99180.19;131332;1254;107540;-75
2023/02/21 08:25:36;;;;;;;20.70;9.70;;;;;;;7.08;72.58;99166.46;131330;1256;107519;-74
2023/02/21 08:28:42;;;;;;;39.30;17.50;;;;;;;7.22;72.53;99177.52;131309;1263;106734;-76
2023/02/21 08:31:47;;;;;;;21.20;9.20;;;;;;;7.34;71.85;99185.54;131239;1253;106658;-76
2023/02/21 08:34:53;;;;;;;10.30;3.80;;;;;;;7.44;71.91;99177.55;131020;1256;108107;-76
2023/02/21 08:38:02;;;;;;;15.30;6.70;;;;;;;7.55;71.65;99185.85;131044;1254;108596;-76
2023/02/21 08:41:09;;;;;;;9.10;2.90;;;;;;;7.67;71.06;99186.58;131079;1255;107453;-77
2023/02/21 08:44:16;;;;;;;18.30;8.90;;;;;;;7.62;69.54;99200.48;131016;1254;109325;-76
2023/02/21 08:47:22;;;;;;;7.60;2.10;;;;;;;7.59;69.51;99202.44;131195;1263;107422;-74
2023/02/21 08:50:28;;;;;;;15.70;5.90;;;;;;;7.55;70.24;99206.06;131120;1255;108025;-77
2023/02/21 08:53:34;;;;;;;8.00;1.90;;;;;;;7.49;70.05;99223.03;131300;1255;106700;-75
2023/02/21 08:56:39;;;;;;;19.90;9.60;;;;;;;7.53;70.29;99216.84;131301;1250;106464;-75
2023/02/21 08:59:45;;;;;;;19.00;7.70;;;;;;;7.59;70.74;99219.73;131134;1255;106695;-77
2023/02/21 09:02:52;;;;;;;17.80;6.30;;;;;;;7.60;69.88;99223.69;131017;1254;107369;-76
2023/02/21 09:05:58;;;;;;;9.10;2.20;;;;;;;7.62;69.53;99223.01;131094;1252;107295;-76
2023/02/21 09:09:04;;;;;;;26.60;15.70;;;;;;;7.68;70.75;99221.99;131445;1254;107343;-76
2023/02/21 09:12:10;;;;;;;7.40;2.30;;;;;;;7.81;70.99;99225.42;131085;1261;107602;-77
2023/02/21 09:15:17;;;;;;;9.40;2.50;;;;;;;7.87;69.61;99222.65;131078;1253;107422;-77
2023/02/21 09:18:22;;;;;;;21.40;13.10;;;;;;;7.90;69.47;99224.71;131210;1253;106976;-77
2023/02/21 09:21:29;;;;;;;7.90;3.30;;;;;;;7.88;69.63;99228.77;131060;1252;107248;-76
2023/02/21 09:24:34;;;;;;;7.30;2.60;;;;;;;7.85;69.32;99237.09;131162;1252;106499;-76
2023/02/21 09:27:40;;;;;;;10.50;2.30;;;;;;;7.79;69.37;99234.67;131346;1261;106752;-77
2023/02/21 09:30:46;;;;;;;17.30;6.40;;;;;;;7.66;68.82;99245.01;131356;1250;107412;-76
2023/02/21 09:33:51;;;;;;;10.30;2.20;;;;;;;7.58;69.08;99253.84;131222;1256;106449;-77
2023/02/21 09:36:58;;;;;;;9.60;2.30;;;;;;;7.48;68.56;99250.77;131003;1253;107625;-77
2023/02/21 09:40:06;;;;;;;18.50;9.40;;;;;;;7.50;69.32;99262.98;131162;1255;109268;-77
2023/02/21 09:43:17;;;;;;;9.80;2.50;;;;;;;7.58;69.82;99265.42;131089;1272;107363;-77
2023/02/21 09:46:31;;;;;;;10.20;2.70;;;;;;;7.54;68.69;99267.49;131214;1254;107593;-77
2023/02/21 09:49:40;;;;;;;12.00;2.30;;;;;;;7.54;68.62;99275.35;131400;1261;107535;-74
2023/02/21 09:52:46;;;;;;;6.40;2.00;;;;;;;7.49;67.47;99288.33;131044;1255;108669;-76
2023/02/21 09:55:57;;;;;;;9.50;2.10;;;;;;;7.46;67.60;99277.86;131118;1255;107436;-77
2023/02/21 09:59:03;;;;;;;7.50;1.90;;;;;;;7.46;68.16;99288.61;131038;1263;107472;-76
2023/02/21 10:02:32;;;;;;;8.20;2.30;;;;;;;7.46;67.99;99293.02;131012;1255;107574;-77
2023/02/21 10:05:46;;;;;;;9.30;2.00;;;;;;;7.53;68.64;99299.36;131060;1256;108631;-76
2023/02/21 10:08:59;;;;;;;9.00;1.80;;;;;;;7.47;66.76;99308.06;131227;1252;107469;-76
2023/02/21 10:12:11;;;;;;;9.60;3.10;;;;;;;7.44;67.24;99310.99;131206;1258;107514;-76
2023/02/21 10:15:39;;;;;;;8.10;2.40;;;;;;;7.50;67.61;99318.53;131098;1253;107707;-77
2023/02/21 10:18:56;;;;;;;10.10;3.00;;;;;;;7.49;67.02;99327.31;131086;1252;107456;-77
2023/02/21 10:22:12;;;;;;;7.80;1.70;;;;;;;7.50;67.62;99324.73;131125;1271;107284;-74
2023/02/21 10:25:28;;;;;;;8.50;2.00;;;;;;;7.56;67.83;99331.35;131381;1252;108738;-77
2023/02/21 10:28:33;;;;;;;8.20;1.80;;;;;;;7.59;68.16;99328.97;131412;1253;107510;-77
2023/02/21 10:31:43;;;;;;;10.40;2.30;;;;;;;7.59;68.08;99335.70;131204;1263;108117;-76
2023/02/21 10:34:50;;;;;;;8.40;1.80;;;;;;;7.60;68.09;99333.32;131003;1256;107551;-77
2023/02/21 10:37:59;;;;;;;9.90;2.40;;;;;;;7.56;66.94;99343.61;131094;1253;108668;-77
2023/02/21 10:41:07;;;;;;;10.00;2.60;;;;;;;7.50;67.83;99339.43;131186;1254;107082;-76
2023/02/21 10:44:18;;;;;;;9.50;2.00;;;;;;;7.45;68.09;99340.80;131278;1256;108696;-77
2023/02/21 10:47:33;;;;;;;7.90;1.90;;;;;;;7.42;67.42;99344.65;131314;1257;107370;-77
2023/02/21 10:50:42;;;;;;;10.60;2.30;;;;;;;7.39;67.17;99351.16;131070;1253;107495;-75
2023/02/21 10:53:48;;;;;;;11.50;4.00;;;;;;;7.36;65.90;99357.79;131179;1268;107573;-75
2023/02/21 10:56:55;;;;;;;7.90;3.30;;;;;;;7.34;65.90;99352.19;131358;1248;107416;-75
2023/02/21 11:00:09;;;;;;;12.00;2.60;;;;;;;7.35;65.31;99361.98;131333;1253;107676;-75
2023/02/21 11:03:26;;;;;;;14.60;5.20;;;;;;;7.41;66.07;99359.02;131306;1252;107655;-75
2023/02/21 11:06:37;;;;;;;10.50;3.10;;;;;;;7.48;66.14;99364.90;131226;1255;107409;-75
2023/02/21 11:09:44;;;;;;;8.50;2.20;;;;;;;7.48;65.58;99362.59;131370;1254;107388;-75
2023/02/21 11:13:03;;;;;;;12.90;3.30;;;;;;;7.55;66.17;99365.89;131426;1272;106335;-76
2023/02/21 11:16:16;;;;;;;27.10;15.10;;;;;;;7.65;66.75;99365.16;131287;1253;107569;-75
2023/02/21 11:19:22;;;;;;;12.60;4.80;;;;;;;7.76;65.78;99369.52;131072;1253;106505;-76
2023/02/21 11:22:41;;;;;;;22.30;9.80;;;;;;;7.82;65.15;99371.60;131083;1254;107581;-76
2023/02/21 11:25:48;;;;;;;9.50;2.40;;;;;;;7.83;65.58;99365.29;131299;1253;107309;-75
2023/02/21 11:28:54;;;;;;;8.80;2.60;;;;;;;7.85;64.66;99373.17;131225;1261;107404;-76
2023/02/21 11:32:10;;;;;;;40.20;25.10;;;;;;;7.76;64.19;99376.60;131113;1253;107909;-76
2023/02/21 11:35:27;;;;;;;9.10;2.20;;;;;;;7.75;64.09;99382.73;131164;1263;109276;-76
2023/02/21 11:38:35;;;;;;;10.60;2.70;;;;;;;7.75;65.19;99369.75;131141;1266;108644;-77
2023/02/21 11:41:48;;;;;;;9.80;3.40;;;;;;;7.84;65.08;99373.49;131295;1252;107543;-76
2023/02/21 11:45:04;;;;;;;;;;;;;;;7.87;64.36;99372.79;131317;1253;107589;-77
2023/02/21 11:48:18;;;;;;;10.40;2.30;;;;;;;7.85;64.49;99375.13;131422;1263;107599;-76
2023/02/21 11:51:32;;;;;;;10.40;2.00;;;;;;;7.84;64.74;99373.08;131424;1253;107523;-76
2023/02/21 11:54:40;;;;;;;9.90;4.20;;;;;;;7.81;63.81;99375.88;131309;1262;107400;-75
2023/02/21 11:57:55;;;;;;;22.80;12.50;;;;;;;7.81;64.08;99377.73;131390;1247;107418;-75
2023/02/21 12:01:05;;;;;;;14.70;2.50;;;;;;;7.86;63.54;99385.42;131121;1254;107455;-75
2023/02/21 12:04:30;;;;;;;10.60;2.50;;;;;;;7.84;62.87;99383.02;131056;1263;108132;-76
2023/02/21 12:07:45;;;;;;;16.10;8.20;;;;;;;7.85;63.06;99395.15;131050;1257;107549;-76
2023/02/21 12:10:58;;;;;;;10.00;3.50;;;;;;;7.76;62.84;99399.97;131110;1256;107366;-76
2023/02/21 12:14:14;;;;;;;10.20;2.60;;;;;;;7.67;63.75;99409.35;131411;1253;108684;-75
2023/02/21 12:17:48;;;;;;;7.80;2.30;;;;;;;7.61;64.16;99409.49;131406;1263;107577;-76
2023/02/21 12:21:12;;;;;;;16.50;3.70;;;;;;;7.54;64.68;99408.04;131033;1248;107413;-77
2023/02/21 12:24:35;;;;;;;13.50;4.50;;;;;;;7.46;64.64;99406.13;131142;1254;107518;-76
2023/02/21 12:27:46;;;;;;;10.10;3.40;;;;;;;7.42;65.14;99411.51;131348;1251;107353;-75
2023/02/21 12:31:04;;;;;;;33.10;16.30;;;;;;;7.46;65.77;99407.77;131079;1272;107260;-72
2023/02/21 12:34:28;;;;;;;10.80;2.60;;;;;;;7.52;65.50;99412.13;131278;1263;107538;-75
2023/02/21 12:37:43;;;;;;;11.80;3.20;;;;;;;7.55;65.71;99412.17;131187;1254;107481;-72
2023/02/21 12:40:58;;;;;;;15.40;3.80;;;;;;;7.58;65.22;99425.20;131401;1251;107452;-72
2023/02/21 12:44:12;;;;;;;20.80;9.20;;;;;;;7.56;65.21;99419.17;131170;1254;107816;-73
2023/02/21 12:47:24;;;;;;;13.90;5.20;;;;;;;7.56;65.50;99423.94;131067;1251;107392;-74
2023/02/21 12:50:35;;;;;;;10.80;3.20;;;;;;;7.58;65.03;99425.34;131053;1251;107546;-73
2023/02/21 12:53:46;;;;;;;11.10;4.60;;;;;;;7.59;64.84;99423.98;131075;1260;107386;-74
2023/02/21 12:56:57;;;;;;;22.10;6.00;;;;;;;7.58;64.86;99426.27;131254;1253;107345;-74
2023/02/21 13:00:16;;;;;;;18.70;9.80;;;;;;;7.59;64.96;99420.23;131279;1247;107439;-74
2023/02/21 13:03:40;;;;;;;13.50;3.20;;;;;;;7.65;64.77;99424.61;131090;1254;107480;-73
2023/02/21 13:06:53;;;;;;;11.90;4.90;;;;;;;7.65;65.01;99432.98;131284;1248;108628;-74
2023/02/21 13:10:06;;;;;;;13.60;6.40;;;;;;;7.63;64.78;99439.52;131358;1263;107511;-75
2023/02/21 13:13:15;;;;;;;14.10;4.20;;;;;;;7.61;64.74;99433.15;131070;1254;107480;-74
2023/02/21 13:16:21;;;;;;;16.80;8.00;;;;;;;7.57;65.05;99434.29;131170;1254;107542;-74
2023/02/21 13:19:32;;;;;;;51.50;29.10;;;;;;;7.58;65.37;99436.51;131077;1252;107561;-74
2023/02/21 13:22:56;;;;;;;21.00;8.20;;;;;;;7.56;65.89;99434.71;131083;1263;108685;-74
2023/02/21 13:26:15;;;;;;;16.10;7.80;;;;;;;7.54;66.09;99444.30;131135;1255;107346;-74
2023/02/21 13:29:25;;;;;;;28.70;13.80;;;;;;;7.51;66.37;99443.25;131057;1251;107556;-73
2023/02/21 13:32:39;;;;;;;13.70;3.30;;;;;;;7.54;66.33;99442.06;131169;1253;107462;-75
2023/02/21 13:35:45;;;;;;;14.10;3.80;;;;;;;7.50;66.65;99448.66;131331;1253;106809;-72
2023/02/21 13:39:02;;;;;;;12.20;3.20;;;;;;;7.44;66.64;99447.79;131338;1253;107309;-73
2023/02/21 13:42:15;;;;;;;24.60;11.20;;;;;;;7.38;66.85;99451.21;131136;1251;106516;-72
2023/02/21 13:45:25;;;;;;;16.30;5.60;;;;;;;7.43;67.15;99449.50;131010;1251;106484;-73
2023/02/21 13:48:31;;;;;;;27.90;13.40;;;;;;;7.44;66.71;99457.18;131088;1254;108034;-73
2023/02/21 13:51:51;;;;;;;13.10;3.00;;;;;;;7.41;66.68;99462.09;130957;1251;172458;-74
2023/02/21 13:55:35;;;;;;;133.70;71.30;;;;;;;7.39;66.84;99461.38;131154;1251;106059;-74
2023/02/21 13:58:42;;;;;;;29.30;15.30;;;;;;;7.42;67.18;99468.66;131053;1251;108595;-73
2023/02/21 14:01:50;;;;;;;20.70;10.60;;;;;;;7.43;66.95;99471.42;131086;1251;108499;-72
2023/02/21 14:05:07;;;;;;;24.00;8.70;;;;;;;7.42;66.93;99477.02;131206;1270;108579;-73
2023/02/21 14:08:16;;;;;;;17.90;6.90;;;;;;;7.41;67.14;99475.13;131251;1253;107491;-73
2023/02/21 14:11:27;;;;;;;17.00;5.70;;;;;;;7.47;67.09;99480.01;131144;1252;107457;-71
2023/02/21 14:14:38;;;;;;;20.00;6.80;;;;;;;7.52;67.16;99477.31;131111;1253;107479;-72
2023/02/21 14:17:47;;;;;;;21.00;7.90;;;;;;;7.55;67.27;99479.39;131415;1253;107416;-73
2023/02/21 14:20:55;;;;;;;12.90;4.00;;;;;;;7.58;67.41;99487.95;131301;1251;107594;-73
2023/02/21 14:24:04;;;;;;;18.40;7.70;;;;;;;7.57;67.17;99486.66;131318;1254;109590;-72
2023/02/21 14:27:34;;;;;;;21.60;8.00;;;;;;;7.56;67.27;99490.16;131235;1254;107529;-73
2023/02/21 14:30:39;;;;;;;13.00;4.70;;;;;;;7.50;67.09;99491.94;131227;1252;107525;-74
2023/02/21 14:33:45;;;;;;;17.20;8.30;;;;;;;7.45;67.40;99490.14;131322;1253;107560;-72
2023/02/21 14:36:54;;;;;;;37.20;18.50;;;;;;;7.46;67.51;99488.65;131300;1254;107523;-73
2023/02/21 14:40:10;;;;;;;16.70;7.20;;;;;;;7.47;67.68;99497.14;131393;1254;107556;-73
2023/02/21 14:43:42;;;;;;;36.40;19.80;;;;;;;7.49;67.56;99496.98;131332;1251;107546;-73
2023/02/21 14:47:13;;;;;;;57.30;20.10;;;;;;;7.57;67.56;99499.29;131380;1264;107613;-72
2023/02/21 14:50:43;;;;;;;36.10;14.00;;;;;;;7.53;67.35;99495.02;131314;1255;107459;-74
2023/02/21 14:54:13;;;;;;;14.90;5.70;;;;;;;7.47;67.46;99511.65;131268;1254;107634;-73
2023/02/21 15:01:03;;;;;;;23.90;10.30;;;;;;;7.35;67.91;99523.51;126930;1302;635267;-73
2023/02/21 15:04:19;;;;;;;15.90;5.60;;;;;;;7.31;67.95;99527.84;130002;1266;107451;-73
2023/02/21 15:07:31;;;;;;;13.10;4.60;;;;;;;7.28;67.98;99529.53;130032;1267;107418;-74
2023/02/21 15:10:40;;;;;;;;;;;;;;;7.23;68.04;99535.84;130626;1278;107414;-74
2023/02/21 15:13:46;;;;;;;15.70;5.90;;;;;;;7.21;68.38;99545.39;130563;1276;147449;-74
2023/02/21 15:16:54;;;;;;;19.90;10.80;;;;;;;7.16;68.18;99538.86;130810;1276;107541;-73
2023/02/21 15:20:14;;;;;;;21.50;9.30;;;;;;;7.12;68.54;99544.52;130808;1266;106491;-73
2023/02/21 15:23:28;;;;;;;71.20;39.40;;;;;;;7.05;68.72;99548.52;130773;1259;107530;-74
2023/02/21 15:26:34;;;;;;;96.20;48.30;;;;;;;7.03;68.78;99552.98;130816;1257;107057;-74
2023/02/21 15:29:40;;;;;;;40.80;24.10;;;;;;;7.04;69.27;99553.09;130763;1268;107531;-73
2023/02/21 15:32:53;;;;;;;138.80;59.70;;;;;;;7.08;68.86;99558.48;130799;1254;107225;-73
2023/02/21 15:36:01;;;;;;;38.90;17.90;;;;;;;7.11;69.06;99563.15;130810;1254;108629;-73
2023/02/21 15:39:13;;;;;;;25.80;9.50;;;;;;;7.14;69.17;99565.70;130816;1254;107550;-72
2023/02/21 15:42:20;;;;;;;15.70;4.50;;;;;;;7.12;69.00;99571.73;130824;1251;107473;-72
2023/02/21 15:45:30;;;;;;;22.90;10.00;;;;;;;7.04;69.40;99572.36;130873;1251;107438;-74
2023/02/21 15:48:36;;;;;;;16.30;5.70;;;;;;;7.00;69.56;99578.33;130858;1251;107527;-74
2023/02/21 15:51:42;;;;;;;22.80;10.80;;;;;;;6.96;69.47;99580.30;130959;1274;107387;-74
2023/02/21 15:54:48;;;;;;;17.20;6.10;;;;;;;6.91;69.58;99581.16;131004;1253;108575;-74
2023/02/21 15:58:02;;;;;;;21.40;8.00;;;;;;;6.88;69.89;99582.20;131010;1253;107879;-74
2023/02/21 16:01:10;;;;;;;15.50;5.30;;;;;;;6.81;69.97;99585.29;130893;1258;108647;-74
2023/02/21 16:04:21;;;;;;;21.90;8.80;;;;;;;6.77;69.87;99586.21;130806;1257;107569;-75
2023/02/21 16:07:36;;;;;;;14.40;6.60;;;;;;;6.74;70.09;99589.13;130865;1252;107129;-74
2023/02/21 16:10:42;;;;;;;15.80;5.80;;;;;;;6.78;70.11;99592.14;130880;1252;107618;-73
2023/02/21 16:13:48;;;;;;;14.00;5.20;;;;;;;6.80;70.12;99593.91;130722;1254;107347;-73
2023/02/21 16:17:06;;;;;;;16.90;4.60;;;;;;;6.81;70.11;99599.41;130611;1269;107240;-73
2023/02/21 16:20:18;;;;;;;13.40;4.60;;;;;;;6.79;69.92;99603.48;130645;1253;107377;-72
2023/02/21 16:23:32;;;;;;;16.40;5.20;;;;;;;6.78;70.08;99601.02;130662;1253;107580;-73
2023/02/21 16:26:38;;;;;;;16.80;4.90;;;;;;;6.75;69.77;99610.79;130603;1254;107921;-73
2023/02/21 16:29:43;;;;;;;16.00;5.60;;;;;;;6.71;70.06;99616.82;130656;1257;107628;-72
2023/02/21 16:32:51;;;;;;;14.60;4.60;;;;;;;6.63;70.02;99621.45;130807;1276;107387;-72
2023/02/21 16:35:57;;;;;;;15.60;6.00;;;;;;;6.57;70.15;99622.86;130774;1256;107343;-74
2023/02/21 16:39:02;;;;;;;16.80;6.90;;;;;;;6.54;70.37;99627.04;130790;1262;107551;-74
2023/02/21 16:42:08;;;;;;;13.30;7.10;;;;;;;6.51;70.16;99629.82;130641;1257;107230;-73
2023/02/21 16:45:14;;;;;;;14.60;5.60;;;;;;;6.51;70.64;99640.60;130841;1257;108713;-73
2023/02/21 16:48:23;;;;;;;16.70;7.20;;;;;;;6.49;70.59;99636.18;130735;1252;108058;-73
2023/02/21 16:51:33;;;;;;;17.40;6.70;;;;;;;6.52;70.62;99640.52;130687;1276;107406;-74
2023/02/21 16:54:39;;;;;;;25.60;13.70;;;;;;;6.54;70.71;99647.90;130763;1257;107577;-79